sensor_id;sensor_type;location;lat;lon;timestamp;P1;durP1;ratioP1;P2;durP2;ratioP2
61960;SDS011;47923;42.506;24.192;2023-06-22T00:01:01;11.00;;;7.95;;
61960;SDS011;47923;42.506;24.192;2023-06-22T00:03:27;12.50;;;7.75;;
61960;SDS011;47923;42.506;24.192;2023-06-22T00:05:53;10.15;;;7.47;;
61960;SDS011;47923;42.506;24.192;2023-06-22T00:08:19;10.50;;;7.50;;
61960;SDS011;47923;42.506;24.192;2023-06-22T00:10:45;13.13;;;7.40;;
61960;SDS011;47923;42.506;24.192;2023-06-22T00:13:12;11.60;;;6.85;;
61960;SDS011;47923;42.506;24.192;2023-06-22T00:15:39;11.10;;;8.05;;
61960;SDS011;47923;42.506;24.192;2023-06-22T00:18:06;10.82;;;8.55;;
61960;SDS011;47923;42.506;24.192;2023-06-22T00:20:33;10.02;;;8.20;;
61960;SDS011;47923;42.506;24.192;2023-06-22T00:23:02;10.55;;;8.00;;
61960;SDS011;47923;42.506;24.192;2023-06-22T00:25:34;12.02;;;8.70;;
61960;SDS011;47923;42.506;24.192;2023-06-22T00:28:00;10.65;;;7.63;;
61960;SDS011;47923;42.506;24.192;2023-06-22T00:30:27;11.23;;;8.60;;
61960;SDS011;47923;42.506;24.192;2023-06-22T00:32:52;11.43;;;8.68;;
61960;SDS011;47923;42.506;24.192;2023-06-22T00:35:18;12.60;;;9.13;;
61960;SDS011;47923;42.506;24.192;2023-06-22T00:37:44;11.05;;;8.80;;
61960;SDS011;47923;42.506;24.192;2023-06-22T00:40:10;11.95;;;8.75;;
61960;SDS011;47923;42.506;24.192;2023-06-22T00:42:40;11.88;;;9.50;;
61960;SDS011;47923;42.506;24.192;2023-06-22T00:45:06;13.70;;;9.95;;
61960;SDS011;47923;42.506;24.192;2023-06-22T00:47:33;11.63;;;8.20;;
61960;SDS011;47923;42.506;24.192;2023-06-22T00:50:01;13.77;;;10.43;;
61960;SDS011;47923;42.506;24.192;2023-06-22T00:52:28;11.30;;;8.57;;
61960;SDS011;47923;42.506;24.192;2023-06-22T00:54:59;13.20;;;9.75;;
61960;SDS011;47923;42.506;24.192;2023-06-22T00:57:26;11.60;;;8.80;;
61960;SDS011;47923;42.506;24.192;2023-06-22T00:59:53;9.52;;;7.80;;
61960;SDS011;47923;42.506;24.192;2023-06-22T01:02:19;10.90;;;8.10;;
61960;SDS011;47923;42.506;24.192;2023-06-22T01:04:45;11.70;;;9.07;;
61960;SDS011;47923;42.506;24.192;2023-06-22T01:09:41;10.98;;;8.52;;
61960;SDS011;47923;42.506;24.192;2023-06-22T01:12:18;12.55;;;9.40;;
61960;SDS011;47923;42.506;24.192;2023-06-22T01:14:47;11.48;;;8.90;;
61960;SDS011;47923;42.506;24.192;2023-06-22T01:17:29;11.38;;;8.52;;
61960;SDS011;47923;42.506;24.192;2023-06-22T01:19:57;11.02;;;8.40;;
61960;SDS011;47923;42.506;24.192;2023-06-22T01:22:26;12.93;;;8.95;;
61960;SDS011;47923;42.506;24.192;2023-06-22T01:27:47;14.00;;;8.75;;
61960;SDS011;47923;42.506;24.192;2023-06-22T01:30:21;12.73;;;9.57;;
61960;SDS011;47923;42.506;24.192;2023-06-22T01:32:50;11.82;;;8.95;;
61960;SDS011;47923;42.506;24.192;2023-06-22T01:35:17;13.50;;;8.85;;
61960;SDS011;47923;42.506;24.192;2023-06-22T01:37:45;13.60;;;9.20;;
61960;SDS011;47923;42.506;24.192;2023-06-22T01:40:12;14.13;;;8.95;;
61960;SDS011;47923;42.506;24.192;2023-06-22T01:42:38;12.27;;;8.98;;
61960;SDS011;47923;42.506;24.192;2023-06-22T01:45:04;15.80;;;9.98;;
61960;SDS011;47923;42.506;24.192;2023-06-22T01:47:32;11.88;;;9.43;;
61960;SDS011;47923;42.506;24.192;2023-06-22T01:49:58;16.98;;;8.98;;
61960;SDS011;47923;42.506;24.192;2023-06-22T01:52:24;15.30;;;9.63;;
61960;SDS011;47923;42.506;24.192;2023-06-22T01:54:50;11.60;;;8.15;;
61960;SDS011;47923;42.506;24.192;2023-06-22T01:57:16;11.07;;;8.43;;
61960;SDS011;47923;42.506;24.192;2023-06-22T01:59:48;12.15;;;8.80;;
61960;SDS011;47923;42.506;24.192;2023-06-22T02:02:16;10.88;;;8.05;;
61960;SDS011;47923;42.506;24.192;2023-06-22T02:05:19;14.30;;;10.85;;
61960;SDS011;47923;42.506;24.192;2023-06-22T02:07:41;13.30;;;10.75;;
61960;SDS011;47923;42.506;24.192;2023-06-22T02:10:12;10.38;;;8.45;;
61960;SDS011;47923;42.506;24.192;2023-06-22T02:12:41;13.77;;;9.48;;
61960;SDS011;47923;42.506;24.192;2023-06-22T02:15:09;14.10;;;9.75;;
61960;SDS011;47923;42.506;24.192;2023-06-22T02:17:35;13.45;;;10.55;;
61960;SDS011;47923;42.506;24.192;2023-06-22T02:20:02;14.75;;;9.65;;
61960;SDS011;47923;42.506;24.192;2023-06-22T02:22:33;12.65;;;10.65;;
61960;SDS011;47923;42.506;24.192;2023-06-22T02:24:59;12.10;;;9.02;;
61960;SDS011;47923;42.506;24.192;2023-06-22T02:27:25;14.75;;;10.25;;
61960;SDS011;47923;42.506;24.192;2023-06-22T02:29:50;15.57;;;9.27;;
61960;SDS011;47923;42.506;24.192;2023-06-22T02:32:16;16.35;;;9.70;;
61960;SDS011;47923;42.506;24.192;2023-06-22T02:34:43;13.98;;;9.35;;
61960;SDS011;47923;42.506;24.192;2023-06-22T02:37:13;12.52;;;9.95;;
61960;SDS011;47923;42.506;24.192;2023-06-22T02:39:39;12.93;;;9.00;;
61960;SDS011;47923;42.506;24.192;2023-06-22T02:42:05;12.98;;;10.38;;
61960;SDS011;47923;42.506;24.192;2023-06-22T02:44:31;15.05;;;10.57;;
61960;SDS011;47923;42.506;24.192;2023-06-22T02:46:57;13.07;;;9.50;;
61960;SDS011;47923;42.506;24.192;2023-06-22T02:49:23;12.90;;;9.93;;
61960;SDS011;47923;42.506;24.192;2023-06-22T02:51:48;13.45;;;10.23;;
61960;SDS011;47923;42.506;24.192;2023-06-22T02:54:14;12.65;;;9.35;;
61960;SDS011;47923;42.506;24.192;2023-06-22T02:56:41;12.10;;;9.38;;
61960;SDS011;47923;42.506;24.192;2023-06-22T02:59:08;12.77;;;9.25;;
61960;SDS011;47923;42.506;24.192;2023-06-22T03:01:35;11.85;;;9.02;;
61960;SDS011;47923;42.506;24.192;2023-06-22T03:04:07;13.75;;;9.63;;
61960;SDS011;47923;42.506;24.192;2023-06-22T03:06:34;13.30;;;10.32;;
61960;SDS011;47923;42.506;24.192;2023-06-22T03:09:00;16.88;;;10.18;;
61960;SDS011;47923;42.506;24.192;2023-06-22T03:11:28;13.57;;;10.50;;
61960;SDS011;47923;42.506;24.192;2023-06-22T03:13:55;13.45;;;10.85;;
61960;SDS011;47923;42.506;24.192;2023-06-22T03:16:20;14.43;;;10.57;;
61960;SDS011;47923;42.506;24.192;2023-06-22T03:18:46;13.57;;;11.23;;
61960;SDS011;47923;42.506;24.192;2023-06-22T03:21:11;15.93;;;11.00;;
61960;SDS011;47923;42.506;24.192;2023-06-22T03:23:37;14.95;;;11.02;;
61960;SDS011;47923;42.506;24.192;2023-06-22T03:26:03;15.95;;;11.68;;
61960;SDS011;47923;42.506;24.192;2023-06-22T03:28:29;14.55;;;10.60;;
61960;SDS011;47923;42.506;24.192;2023-06-22T03:30:57;13.10;;;9.90;;
61960;SDS011;47923;42.506;24.192;2023-06-22T03:33:23;12.48;;;9.52;;
61960;SDS011;47923;42.506;24.192;2023-06-22T03:35:48;11.30;;;8.35;;
61960;SDS011;47923;42.506;24.192;2023-06-22T03:38:15;11.88;;;8.52;;
61960;SDS011;47923;42.506;24.192;2023-06-22T03:40:41;10.30;;;8.13;;
61960;SDS011;47923;42.506;24.192;2023-06-22T03:43:07;10.80;;;7.68;;
61960;SDS011;47923;42.506;24.192;2023-06-22T03:45:32;12.18;;;7.32;;
61960;SDS011;47923;42.506;24.192;2023-06-22T03:47:58;10.98;;;7.03;;
61960;SDS011;47923;42.506;24.192;2023-06-22T03:50:25;11.50;;;7.15;;
61960;SDS011;47923;42.506;24.192;2023-06-22T03:52:50;15.20;;;7.35;;
61960;SDS011;47923;42.506;24.192;2023-06-22T03:55:17;10.90;;;7.50;;
61960;SDS011;47923;42.506;24.192;2023-06-22T03:57:44;10.70;;;6.55;;
61960;SDS011;47923;42.506;24.192;2023-06-22T04:00:10;11.18;;;6.72;;
61960;SDS011;47923;42.506;24.192;2023-06-22T04:02:36;11.27;;;6.57;;
61960;SDS011;47923;42.506;24.192;2023-06-22T04:05:02;9.77;;;6.60;;
61960;SDS011;47923;42.506;24.192;2023-06-22T04:07:28;12.10;;;6.25;;
61960;SDS011;47923;42.506;24.192;2023-06-22T04:09:53;10.68;;;6.22;;
61960;SDS011;47923;42.506;24.192;2023-06-22T04:12:19;11.70;;;6.95;;
61960;SDS011;47923;42.506;24.192;2023-06-22T04:14:45;9.68;;;6.95;;
61960;SDS011;47923;42.506;24.192;2023-06-22T04:17:11;18.58;;;7.28;;
61960;SDS011;47923;42.506;24.192;2023-06-22T04:19:39;9.07;;;6.22;;
61960;SDS011;47923;42.506;24.192;2023-06-22T04:22:05;8.48;;;6.20;;
61960;SDS011;47923;42.506;24.192;2023-06-22T04:24:32;20.77;;;7.15;;
61960;SDS011;47923;42.506;24.192;2023-06-22T04:26:58;10.95;;;5.97;;
61960;SDS011;47923;42.506;24.192;2023-06-22T04:29:28;8.45;;;5.82;;
61960;SDS011;47923;42.506;24.192;2023-06-22T04:31:56;8.82;;;6.00;;
61960;SDS011;47923;42.506;24.192;2023-06-22T04:34:28;16.83;;;7.47;;
61960;SDS011;47923;42.506;24.192;2023-06-22T04:36:54;14.13;;;6.47;;
61960;SDS011;47923;42.506;24.192;2023-06-22T04:39:20;9.68;;;6.53;;
61960;SDS011;47923;42.506;24.192;2023-06-22T04:41:46;12.85;;;6.55;;
61960;SDS011;47923;42.506;24.192;2023-06-22T04:44:13;15.60;;;7.18;;
61960;SDS011;47923;42.506;24.192;2023-06-22T04:46:50;11.35;;;6.80;;
61960;SDS011;47923;42.506;24.192;2023-06-22T04:49:25;10.82;;;6.35;;
61960;SDS011;47923;42.506;24.192;2023-06-22T04:54:23;11.02;;;6.25;;
61960;SDS011;47923;42.506;24.192;2023-06-22T04:56:49;8.93;;;5.30;;
61960;SDS011;47923;42.506;24.192;2023-06-22T04:59:24;8.02;;;5.05;;
61960;SDS011;47923;42.506;24.192;2023-06-22T05:01:53;13.80;;;6.28;;
61960;SDS011;47923;42.506;24.192;2023-06-22T05:04:19;7.97;;;5.22;;
61960;SDS011;47923;42.506;24.192;2023-06-22T05:06:45;8.05;;;5.43;;
61960;SDS011;47923;42.506;24.192;2023-06-22T05:09:10;8.32;;;5.63;;
61960;SDS011;47923;42.506;24.192;2023-06-22T05:11:37;8.35;;;5.20;;
61960;SDS011;47923;42.506;24.192;2023-06-22T05:14:02;7.53;;;5.20;;
61960;SDS011;47923;42.506;24.192;2023-06-22T05:16:28;8.73;;;5.30;;
61960;SDS011;47923;42.506;24.192;2023-06-22T05:18:54;8.70;;;5.60;;
61960;SDS011;47923;42.506;24.192;2023-06-22T05:21:25;8.32;;;5.53;;
61960;SDS011;47923;42.506;24.192;2023-06-22T05:23:54;8.20;;;5.30;;
61960;SDS011;47923;42.506;24.192;2023-06-22T05:26:21;10.55;;;6.03;;
61960;SDS011;47923;42.506;24.192;2023-06-22T05:28:47;9.93;;;5.50;;
61960;SDS011;47923;42.506;24.192;2023-06-22T05:31:16;8.30;;;6.35;;
61960;SDS011;47923;42.506;24.192;2023-06-22T05:33:43;9.73;;;5.88;;
61960;SDS011;47923;42.506;24.192;2023-06-22T05:36:09;9.35;;;5.93;;
61960;SDS011;47923;42.506;24.192;2023-06-22T05:38:35;8.90;;;5.75;;
61960;SDS011;47923;42.506;24.192;2023-06-22T05:41:01;10.77;;;5.68;;
61960;SDS011;47923;42.506;24.192;2023-06-22T05:43:27;9.15;;;5.60;;
61960;SDS011;47923;42.506;24.192;2023-06-22T05:45:53;13.73;;;6.10;;
61960;SDS011;47923;42.506;24.192;2023-06-22T05:48:19;12.18;;;5.63;;
61960;SDS011;47923;42.506;24.192;2023-06-22T05:50:45;15.57;;;6.65;;
61960;SDS011;47923;42.506;24.192;2023-06-22T05:53:11;11.70;;;5.35;;
61960;SDS011;47923;42.506;24.192;2023-06-22T05:55:36;12.27;;;5.78;;
61960;SDS011;47923;42.506;24.192;2023-06-22T05:58:02;9.00;;;5.80;;
61960;SDS011;47923;42.506;24.192;2023-06-22T06:00:31;10.88;;;5.57;;
61960;SDS011;47923;42.506;24.192;2023-06-22T06:02:57;7.43;;;5.63;;
61960;SDS011;47923;42.506;24.192;2023-06-22T06:05:28;14.13;;;5.78;;
61960;SDS011;47923;42.506;24.192;2023-06-22T06:07:54;10.43;;;5.78;;
61960;SDS011;47923;42.506;24.192;2023-06-22T06:10:20;9.07;;;5.85;;
61960;SDS011;47923;42.506;24.192;2023-06-22T06:12:46;10.55;;;5.35;;
61960;SDS011;47923;42.506;24.192;2023-06-22T06:15:13;19.15;;;7.75;;
61960;SDS011;47923;42.506;24.192;2023-06-22T06:17:49;16.42;;;6.65;;
61960;SDS011;47923;42.506;24.192;2023-06-22T06:20:17;12.10;;;8.95;;
61960;SDS011;47923;42.506;24.192;2023-06-22T06:22:44;9.27;;;6.35;;
61960;SDS011;47923;42.506;24.192;2023-06-22T06:25:09;8.80;;;6.88;;
61960;SDS011;47923;42.506;24.192;2023-06-22T06:27:40;12.07;;;7.68;;
61960;SDS011;47923;42.506;24.192;2023-06-22T06:30:08;13.13;;;9.13;;
61960;SDS011;47923;42.506;24.192;2023-06-22T06:32:34;12.52;;;6.57;;
61960;SDS011;47923;42.506;24.192;2023-06-22T06:34:59;9.00;;;5.38;;
61960;SDS011;47923;42.506;24.192;2023-06-22T06:37:25;12.35;;;5.25;;
61960;SDS011;47923;42.506;24.192;2023-06-22T06:39:51;8.80;;;4.45;;
61960;SDS011;47923;42.506;24.192;2023-06-22T06:42:17;10.25;;;4.70;;
61960;SDS011;47923;42.506;24.192;2023-06-22T06:44:44;8.10;;;5.40;;
61960;SDS011;47923;42.506;24.192;2023-06-22T06:47:10;12.98;;;5.82;;
61960;SDS011;47923;42.506;24.192;2023-06-22T06:49:36;10.07;;;5.75;;
61960;SDS011;47923;42.506;24.192;2023-06-22T06:52:02;11.18;;;7.85;;
61960;SDS011;47923;42.506;24.192;2023-06-22T06:54:28;12.55;;;6.00;;
61960;SDS011;47923;42.506;24.192;2023-06-22T06:56:53;30.73;;;27.83;;
61960;SDS011;47923;42.506;24.192;2023-06-22T06:59:19;11.10;;;8.10;;
61960;SDS011;47923;42.506;24.192;2023-06-22T07:01:46;8.05;;;4.13;;
61960;SDS011;47923;42.506;24.192;2023-06-22T07:04:13;9.88;;;4.25;;
61960;SDS011;47923;42.506;24.192;2023-06-22T07:06:39;10.13;;;6.28;;
61960;SDS011;47923;42.506;24.192;2023-06-22T07:09:05;9.48;;;5.68;;
61960;SDS011;47923;42.506;24.192;2023-06-22T07:11:30;7.68;;;4.93;;
61960;SDS011;47923;42.506;24.192;2023-06-22T07:13:56;10.98;;;8.35;;
61960;SDS011;47923;42.506;24.192;2023-06-22T07:16:22;12.35;;;4.50;;
61960;SDS011;47923;42.506;24.192;2023-06-22T07:18:48;6.75;;;4.10;;
61960;SDS011;47923;42.506;24.192;2023-06-22T07:21:17;6.35;;;3.50;;
61960;SDS011;47923;42.506;24.192;2023-06-22T07:23:43;15.13;;;6.00;;
61960;SDS011;47923;42.506;24.192;2023-06-22T07:26:09;6.65;;;4.47;;
61960;SDS011;47923;42.506;24.192;2023-06-22T07:28:37;6.47;;;3.97;;
61960;SDS011;47923;42.506;24.192;2023-06-22T07:31:05;9.30;;;4.05;;
61960;SDS011;47923;42.506;24.192;2023-06-22T07:33:31;7.95;;;4.38;;
61960;SDS011;47923;42.506;24.192;2023-06-22T07:35:57;5.85;;;3.70;;
61960;SDS011;47923;42.506;24.192;2023-06-22T07:38:22;6.28;;;3.55;;
61960;SDS011;47923;42.506;24.192;2023-06-22T07:40:48;5.05;;;3.88;;
61960;SDS011;47923;42.506;24.192;2023-06-22T07:43:15;7.00;;;3.95;;
61960;SDS011;47923;42.506;24.192;2023-06-22T07:45:44;9.50;;;4.50;;
61960;SDS011;47923;42.506;24.192;2023-06-22T07:48:17;7.80;;;4.07;;
61960;SDS011;47923;42.506;24.192;2023-06-22T07:50:45;7.22;;;4.07;;
61960;SDS011;47923;42.506;24.192;2023-06-22T07:53:11;8.52;;;4.78;;
61960;SDS011;47923;42.506;24.192;2023-06-22T07:55:36;5.90;;;3.95;;
61960;SDS011;47923;42.506;24.192;2023-06-22T07:58:02;7.05;;;4.10;;
61960;SDS011;47923;42.506;24.192;2023-06-22T08:00:28;9.57;;;7.03;;
61960;SDS011;47923;42.506;24.192;2023-06-22T08:02:54;7.72;;;3.67;;
61960;SDS011;47923;42.506;24.192;2023-06-22T08:05:21;6.43;;;3.80;;
61960;SDS011;47923;42.506;24.192;2023-06-22T08:07:47;5.53;;;3.63;;
61960;SDS011;47923;42.506;24.192;2023-06-22T08:10:13;5.15;;;4.18;;
61960;SDS011;47923;42.506;24.192;2023-06-22T08:12:39;7.78;;;4.28;;
61960;SDS011;47923;42.506;24.192;2023-06-22T08:15:05;5.13;;;3.70;;
61960;SDS011;47923;42.506;24.192;2023-06-22T08:17:32;10.88;;;9.85;;
61960;SDS011;47923;42.506;24.192;2023-06-22T08:19:58;7.95;;;6.38;;
61960;SDS011;47923;42.506;24.192;2023-06-22T08:22:24;7.95;;;3.88;;
61960;SDS011;47923;42.506;24.192;2023-06-22T08:24:50;9.48;;;4.07;;
61960;SDS011;47923;42.506;24.192;2023-06-22T08:27:16;6.47;;;3.80;;
61960;SDS011;47923;42.506;24.192;2023-06-22T08:29:43;10.50;;;4.05;;
61960;SDS011;47923;42.506;24.192;2023-06-22T08:32:10;6.22;;;3.90;;
61960;SDS011;47923;42.506;24.192;2023-06-22T08:34:36;5.63;;;3.55;;
61960;SDS011;47923;42.506;24.192;2023-06-22T08:37:07;7.05;;;3.88;;
61960;SDS011;47923;42.506;24.192;2023-06-22T08:39:36;6.15;;;3.60;;
61960;SDS011;47923;42.506;24.192;2023-06-22T08:42:01;6.00;;;3.78;;
61960;SDS011;47923;42.506;24.192;2023-06-22T08:44:27;5.20;;;3.88;;
61960;SDS011;47923;42.506;24.192;2023-06-22T08:46:53;4.50;;;3.60;;
61960;SDS011;47923;42.506;24.192;2023-06-22T08:49:19;7.00;;;3.80;;
61960;SDS011;47923;42.506;24.192;2023-06-22T08:51:45;22.92;;;6.35;;
61960;SDS011;47923;42.506;24.192;2023-06-22T08:54:12;7.03;;;4.05;;
61960;SDS011;47923;42.506;24.192;2023-06-22T08:56:38;5.00;;;3.35;;
61960;SDS011;47923;42.506;24.192;2023-06-22T08:59:04;6.03;;;3.63;;
61960;SDS011;47923;42.506;24.192;2023-06-22T09:01:32;5.18;;;3.70;;
61960;SDS011;47923;42.506;24.192;2023-06-22T09:03:58;6.43;;;4.47;;
61960;SDS011;47923;42.506;24.192;2023-06-22T09:06:25;6.25;;;4.22;;
61960;SDS011;47923;42.506;24.192;2023-06-22T09:08:50;5.47;;;3.58;;
61960;SDS011;47923;42.506;24.192;2023-06-22T09:11:16;5.22;;;4.10;;
61960;SDS011;47923;42.506;24.192;2023-06-22T09:13:42;4.50;;;3.65;;
61960;SDS011;47923;42.506;24.192;2023-06-22T09:16:08;10.15;;;5.22;;
61960;SDS011;47923;42.506;24.192;2023-06-22T09:18:34;6.57;;;3.78;;
61960;SDS011;47923;42.506;24.192;2023-06-22T09:21:01;5.63;;;3.95;;
61960;SDS011;47923;42.506;24.192;2023-06-22T09:23:26;6.03;;;3.78;;
61960;SDS011;47923;42.506;24.192;2023-06-22T09:25:52;12.02;;;6.53;;
61960;SDS011;47923;42.506;24.192;2023-06-22T09:28:18;6.07;;;4.88;;
61960;SDS011;47923;42.506;24.192;2023-06-22T09:30:44;4.65;;;3.85;;
61960;SDS011;47923;42.506;24.192;2023-06-22T09:33:09;7.10;;;3.60;;
61960;SDS011;47923;42.506;24.192;2023-06-22T09:35:35;4.28;;;3.20;;
61960;SDS011;47923;42.506;24.192;2023-06-22T09:38:01;7.63;;;3.95;;
61960;SDS011;47923;42.506;24.192;2023-06-22T09:40:27;4.88;;;3.90;;
61960;SDS011;47923;42.506;24.192;2023-06-22T09:42:52;6.20;;;3.92;;
61960;SDS011;47923;42.506;24.192;2023-06-22T09:45:18;4.72;;;3.88;;
61960;SDS011;47923;42.506;24.192;2023-06-22T09:47:44;4.47;;;3.70;;
61960;SDS011;47923;42.506;24.192;2023-06-22T09:50:09;5.97;;;4.18;;
61960;SDS011;47923;42.506;24.192;2023-06-22T09:52:35;4.70;;;3.92;;
61960;SDS011;47923;42.506;24.192;2023-06-22T09:55:01;4.15;;;3.72;;
61960;SDS011;47923;42.506;24.192;2023-06-22T09:57:28;5.72;;;4.18;;
61960;SDS011;47923;42.506;24.192;2023-06-22T09:59:55;5.22;;;3.70;;
61960;SDS011;47923;42.506;24.192;2023-06-22T10:02:21;5.00;;;3.67;;
61960;SDS011;47923;42.506;24.192;2023-06-22T10:04:47;7.40;;;3.90;;
61960;SDS011;47923;42.506;24.192;2023-06-22T10:07:13;5.93;;;4.07;;
61960;SDS011;47923;42.506;24.192;2023-06-22T10:09:39;8.10;;;4.70;;
61960;SDS011;47923;42.506;24.192;2023-06-22T10:12:05;4.93;;;4.20;;
61960;SDS011;47923;42.506;24.192;2023-06-22T10:14:30;4.20;;;3.60;;
61960;SDS011;47923;42.506;24.192;2023-06-22T10:16:56;5.82;;;4.10;;
61960;SDS011;47923;42.506;24.192;2023-06-22T10:19:22;10.52;;;3.97;;
61960;SDS011;47923;42.506;24.192;2023-06-22T10:21:47;6.60;;;4.10;;
61960;SDS011;47923;42.506;24.192;2023-06-22T10:24:13;5.75;;;4.22;;
61960;SDS011;47923;42.506;24.192;2023-06-22T10:26:39;5.13;;;3.95;;
61960;SDS011;47923;42.506;24.192;2023-06-22T10:29:05;5.22;;;3.92;;
61960;SDS011;47923;42.506;24.192;2023-06-22T10:31:30;5.35;;;4.18;;
61960;SDS011;47923;42.506;24.192;2023-06-22T10:33:56;7.97;;;4.32;;
61960;SDS011;47923;42.506;24.192;2023-06-22T10:36:22;6.45;;;4.45;;
61960;SDS011;47923;42.506;24.192;2023-06-22T10:38:48;7.38;;;4.80;;
61960;SDS011;47923;42.506;24.192;2023-06-22T10:41:14;7.68;;;4.88;;
61960;SDS011;47923;42.506;24.192;2023-06-22T10:43:39;6.35;;;4.70;;
61960;SDS011;47923;42.506;24.192;2023-06-22T10:46:06;7.10;;;5.13;;
61960;SDS011;47923;42.506;24.192;2023-06-22T10:48:32;6.30;;;4.30;;
61960;SDS011;47923;42.506;24.192;2023-06-22T10:50:57;7.53;;;4.75;;
61960;SDS011;47923;42.506;24.192;2023-06-22T10:53:23;6.57;;;5.18;;
61960;SDS011;47923;42.506;24.192;2023-06-22T10:55:51;9.60;;;5.35;;
61960;SDS011;47923;42.506;24.192;2023-06-22T10:58:18;7.35;;;5.70;;
61960;SDS011;47923;42.506;24.192;2023-06-22T11:00:45;7.63;;;6.00;;
61960;SDS011;47923;42.506;24.192;2023-06-22T11:03:11;7.75;;;5.45;;
61960;SDS011;47923;42.506;24.192;2023-06-22T11:05:37;7.25;;;5.70;;
61960;SDS011;47923;42.506;24.192;2023-06-22T11:08:03;7.28;;;5.65;;
61960;SDS011;47923;42.506;24.192;2023-06-22T11:10:29;6.80;;;4.80;;
61960;SDS011;47923;42.506;24.192;2023-06-22T11:12:54;7.80;;;5.53;;
61960;SDS011;47923;42.506;24.192;2023-06-22T11:15:21;8.15;;;5.72;;
61960;SDS011;47923;42.506;24.192;2023-06-22T11:17:47;7.72;;;5.40;;
61960;SDS011;47923;42.506;24.192;2023-06-22T11:20:13;7.10;;;5.57;;
61960;SDS011;47923;42.506;24.192;2023-06-22T11:22:39;7.55;;;5.90;;
61960;SDS011;47923;42.506;24.192;2023-06-22T11:25:06;9.30;;;6.10;;
61960;SDS011;47923;42.506;24.192;2023-06-22T11:27:32;7.07;;;5.63;;
61960;SDS011;47923;42.506;24.192;2023-06-22T11:29:58;7.78;;;6.43;;
61960;SDS011;47923;42.506;24.192;2023-06-22T11:32:24;8.40;;;5.53;;
61960;SDS011;47923;42.506;24.192;2023-06-22T11:34:50;7.22;;;5.13;;
61960;SDS011;47923;42.506;24.192;2023-06-22T11:37:16;7.63;;;5.43;;
61960;SDS011;47923;42.506;24.192;2023-06-22T11:39:42;10.30;;;5.68;;
61960;SDS011;47923;42.506;24.192;2023-06-22T11:42:08;7.65;;;5.70;;
61960;SDS011;47923;42.506;24.192;2023-06-22T11:44:35;9.00;;;6.63;;
61960;SDS011;47923;42.506;24.192;2023-06-22T11:47:00;7.88;;;5.75;;
61960;SDS011;47923;42.506;24.192;2023-06-22T11:49:28;8.02;;;6.03;;
61960;SDS011;47923;42.506;24.192;2023-06-22T11:51:55;7.38;;;5.60;;
61960;SDS011;47923;42.506;24.192;2023-06-22T11:54:20;8.15;;;5.93;;
61960;SDS011;47923;42.506;24.192;2023-06-22T11:56:46;8.07;;;5.82;;
61960;SDS011;47923;42.506;24.192;2023-06-22T11:59:12;7.57;;;5.75;;
61960;SDS011;47923;42.506;24.192;2023-06-22T12:01:38;7.15;;;5.68;;
61960;SDS011;47923;42.506;24.192;2023-06-22T12:04:04;8.18;;;5.43;;
61960;SDS011;47923;42.506;24.192;2023-06-22T12:06:35;7.10;;;5.43;;
61960;SDS011;47923;42.506;24.192;2023-06-22T12:09:03;7.57;;;5.93;;
61960;SDS011;47923;42.506;24.192;2023-06-22T12:11:32;19.27;;;6.72;;
61960;SDS011;47923;42.506;24.192;2023-06-22T12:13:58;9.05;;;5.93;;
61960;SDS011;47923;42.506;24.192;2023-06-22T12:16:27;8.18;;;5.25;;
61960;SDS011;47923;42.506;24.192;2023-06-22T12:18:53;9.38;;;5.88;;
61960;SDS011;47923;42.506;24.192;2023-06-22T12:21:19;10.73;;;5.60;;
61960;SDS011;47923;42.506;24.192;2023-06-22T12:23:45;9.88;;;6.00;;
61960;SDS011;47923;42.506;24.192;2023-06-22T12:26:11;9.48;;;5.20;;
61960;SDS011;47923;42.506;24.192;2023-06-22T12:28:37;7.28;;;5.35;;
61960;SDS011;47923;42.506;24.192;2023-06-22T12:31:02;7.55;;;5.82;;
61960;SDS011;47923;42.506;24.192;2023-06-22T12:33:28;7.53;;;5.38;;
61960;SDS011;47923;42.506;24.192;2023-06-22T12:35:55;7.28;;;5.65;;
61960;SDS011;47923;42.506;24.192;2023-06-22T12:38:21;9.35;;;5.38;;
61960;SDS011;47923;42.506;24.192;2023-06-22T12:40:47;7.38;;;5.07;;
61960;SDS011;47923;42.506;24.192;2023-06-22T12:43:14;7.28;;;5.55;;
61960;SDS011;47923;42.506;24.192;2023-06-22T12:45:40;8.52;;;5.75;;
61960;SDS011;47923;42.506;24.192;2023-06-22T12:48:06;7.13;;;5.88;;
61960;SDS011;47923;42.506;24.192;2023-06-22T12:50:31;8.55;;;5.22;;
61960;SDS011;47923;42.506;24.192;2023-06-22T12:52:57;9.48;;;6.35;;
61960;SDS011;47923;42.506;24.192;2023-06-22T12:55:23;8.65;;;5.45;;
61960;SDS011;47923;42.506;24.192;2023-06-22T12:57:49;8.57;;;5.05;;
61960;SDS011;47923;42.506;24.192;2023-06-22T13:00:15;8.38;;;5.22;;
61960;SDS011;47923;42.506;24.192;2023-06-22T13:02:41;8.45;;;5.35;;
61960;SDS011;47923;42.506;24.192;2023-06-22T13:05:07;8.30;;;5.13;;
61960;SDS011;47923;42.506;24.192;2023-06-22T13:07:33;9.55;;;5.47;;
61960;SDS011;47923;42.506;24.192;2023-06-22T13:09:59;6.95;;;5.05;;
61960;SDS011;47923;42.506;24.192;2023-06-22T13:12:25;7.22;;;5.70;;
61960;SDS011;47923;42.506;24.192;2023-06-22T13:14:54;6.97;;;5.88;;
61960;SDS011;47923;42.506;24.192;2023-06-22T13:17:20;7.90;;;5.30;;
61960;SDS011;47923;42.506;24.192;2023-06-22T13:19:46;7.88;;;5.38;;
61960;SDS011;47923;42.506;24.192;2023-06-22T13:24:56;8.93;;;5.85;;
61960;SDS011;47923;42.506;24.192;2023-06-22T13:27:24;10.07;;;5.85;;
61960;SDS011;47923;42.506;24.192;2023-06-22T13:29:50;7.72;;;5.80;;
61960;SDS011;47923;42.506;24.192;2023-06-22T13:32:16;8.40;;;6.32;;
61960;SDS011;47923;42.506;24.192;2023-06-22T13:34:43;7.65;;;5.43;;
61960;SDS011;47923;42.506;24.192;2023-06-22T13:37:08;8.10;;;5.50;;
61960;SDS011;47923;42.506;24.192;2023-06-22T13:39:34;10.77;;;6.68;;
61960;SDS011;47923;42.506;24.192;2023-06-22T13:42:00;8.10;;;6.20;;
61960;SDS011;47923;42.506;24.192;2023-06-22T13:44:26;9.63;;;6.15;;
61960;SDS011;47923;42.506;24.192;2023-06-22T13:46:54;8.38;;;6.00;;
61960;SDS011;47923;42.506;24.192;2023-06-22T13:49:20;7.85;;;5.97;;
61960;SDS011;47923;42.506;24.192;2023-06-22T13:51:46;7.80;;;6.55;;
61960;SDS011;47923;42.506;24.192;2023-06-22T13:54:16;8.57;;;5.95;;
61960;SDS011;47923;42.506;24.192;2023-06-22T13:56:42;8.13;;;6.35;;
61960;SDS011;47923;42.506;24.192;2023-06-22T13:59:07;9.98;;;6.88;;
61960;SDS011;47923;42.506;24.192;2023-06-22T14:01:35;8.50;;;6.18;;
61960;SDS011;47923;42.506;24.192;2023-06-22T14:04:01;8.05;;;6.38;;
61960;SDS011;47923;42.506;24.192;2023-06-22T14:06:27;10.40;;;6.57;;
61960;SDS011;47923;42.506;24.192;2023-06-22T14:08:53;12.38;;;7.15;;
61960;SDS011;47923;42.506;24.192;2023-06-22T14:11:19;15.48;;;7.28;;
61960;SDS011;47923;42.506;24.192;2023-06-22T14:13:44;9.45;;;5.95;;
61960;SDS011;47923;42.506;24.192;2023-06-22T14:16:10;9.52;;;6.38;;
61960;SDS011;47923;42.506;24.192;2023-06-22T14:18:36;7.78;;;6.18;;
61960;SDS011;47923;42.506;24.192;2023-06-22T14:21:02;11.13;;;6.82;;
61960;SDS011;47923;42.506;24.192;2023-06-22T14:23:28;12.85;;;6.70;;
61960;SDS011;47923;42.506;24.192;2023-06-22T14:25:53;7.75;;;6.22;;
61960;SDS011;47923;42.506;24.192;2023-06-22T14:28:19;9.20;;;6.25;;
61960;SDS011;47923;42.506;24.192;2023-06-22T14:30:45;7.95;;;5.40;;
61960;SDS011;47923;42.506;24.192;2023-06-22T14:33:11;8.90;;;6.05;;
61960;SDS011;47923;42.506;24.192;2023-06-22T14:35:37;9.38;;;6.28;;